In Rescue
 
August 20, 2019 7:43 AM EDT
Weather Information
Wind Direction
  ---
Wind Speed
  00 kt (0 mph)
Wind Gust
  00 kt (0 mph)
Altimeter
30.07 in
Visibility
5 SM
Temperature
21° C
70° F
Dewpoint
21° C
70° F
Humidity
100%
Sky Condition
Clear
MVFR

METAR KIMS 201143Z AUTO 00000KT 5SM CLR 21/21 A3007 RMK AO1

FAA Disclaimer: The data displayed is for advisory purposes only and is not to be used for flight planning or operations.